PTSMC KLGA-KACK
Flight info
| Callsign | PTSMC |
|---|---|
| Flight time | 0h 50m |
| Altitude | 25000 |
| Route | JFK PLUME V139 HTO ARCAV T705 LIBBE T705 DEEPO T705 CLAMY T705 ACK |
| Aircraft | TBM9/L-SG/C |
Departure
| Time | 2026-05-08 23:12 |
|---|---|
| Airport | LaGuardia Airport (KLGA) |
Arrival
| Time | 2026-05-09 00:03 |
|---|---|
| Airport | Nantucket Memorial Airport (KACK) |
| Time | Latitude | Longitude | Altitude | Speed | Heading |
|---|---|---|---|---|---|
| 2026-05-08 22:40 | 40.76833 | -73.85929 | 12 ft | 0 kts | 134° |
| 2026-05-08 23:06 | 40.76841 | -73.85921 | 12 ft | 3 kts | 300° |
| 2026-05-08 23:06 | 40.76845 | -73.85939 | 13 ft | 10 kts | 284° |
| 2026-05-08 23:06 | 40.76875 | -73.85971 | 11 ft | 0 kts | 39° |
| 2026-05-08 23:07 | 40.76877 | -73.85970 | 11 ft | 0 kts | 38° |
| 2026-05-08 23:07 | 40.76881 | -73.85965 | 11 ft | 2 kts | 37° |
| 2026-05-08 23:07 | 40.76885 | -73.85961 | 10 ft | 0 kts | 36° |
| 2026-05-08 23:09 | 40.76923 | -73.85928 | 9 ft | 12 kts | 39° |
| 2026-05-08 23:09 | 40.77018 | -73.85897 | 8 ft | 17 kts | 355° |
| 2026-05-08 23:10 | 40.77114 | -73.85859 | 11 ft | 15 kts | 47° |
| 2026-05-08 23:10 | 40.77156 | -73.85796 | 11 ft | 2 kts | 43° |
| 2026-05-08 23:10 | 40.77158 | -73.85793 | 11 ft | 0 kts | 42° |
| 2026-05-08 23:11 | 40.77250 | -73.85789 | 13 ft | 24 kts | 308° |
| 2026-05-08 23:12 | 40.77387 | -73.86087 | 14 ft | 63 kts | 304° |
| 2026-05-08 23:12 | 40.77720 | -73.86825 | 93 ft | 119 kts | 303° |
| 2026-05-08 23:12 | 40.78244 | -73.87857 | 416 ft | 143 kts | 308° |
| 2026-05-08 23:12 | 40.78940 | -73.88763 | 1096 ft | 142 kts | 333° |
| 2026-05-08 23:13 | 40.79905 | -73.89018 | 1380 ft | 152 kts | 349° |
| 2026-05-08 23:13 | 40.80940 | -73.89229 | 2028 ft | 150 kts | 347° |
| 2026-05-08 23:13 | 40.81978 | -73.89438 | 2716 ft | 151 kts | 347° |
| 2026-05-08 23:13 | 40.83027 | -73.89635 | 3367 ft | 153 kts | 347° |
| 2026-05-08 23:14 | 40.84087 | -73.89822 | 4034 ft | 155 kts | 347° |
| 2026-05-08 23:14 | 40.85180 | -73.89806 | 4737 ft | 166 kts | 12° |
| 2026-05-08 23:14 | 40.86062 | -73.88787 | 5385 ft | 181 kts | 54° |
| 2026-05-08 23:14 | 40.86707 | -73.87327 | 5980 ft | 186 kts | 56° |
| 2026-05-08 23:15 | 40.87362 | -73.85834 | 6590 ft | 189 kts | 56° |
| 2026-05-08 23:15 | 40.88016 | -73.84315 | 7176 ft | 192 kts | 56° |
| 2026-05-08 23:15 | 40.88674 | -73.82760 | 7759 ft | 195 kts | 56° |
| 2026-05-08 23:15 | 40.89328 | -73.81170 | 8347 ft | 199 kts | 57° |
| 2026-05-08 23:16 | 40.89776 | -73.79405 | 8906 ft | 210 kts | 78° |
| 2026-05-08 23:16 | 40.89865 | -73.77359 | 8954 ft | 241 kts | 89° |
| 2026-05-08 23:16 | 40.89874 | -73.75037 | 8952 ft | 262 kts | 89° |
| 2026-05-08 23:16 | 40.90226 | -73.72638 | 8944 ft | 271 kts | 67° |
| 2026-05-08 23:17 | 40.90964 | -73.70313 | 8953 ft | 277 kts | 63° |
| 2026-05-08 23:17 | 40.91754 | -73.67969 | 8951 ft | 281 kts | 62° |
| 2026-05-08 23:17 | 40.92561 | -73.65608 | 8951 ft | 283 kts | 62° |
| 2026-05-08 23:17 | 40.93374 | -73.63238 | 8955 ft | 284 kts | 62° |
| 2026-05-08 23:18 | 40.94189 | -73.60859 | 8952 ft | 284 kts | 62° |
| 2026-05-08 23:18 | 40.95007 | -73.58479 | 8950 ft | 284 kts | 62° |
| 2026-05-08 23:18 | 40.95826 | -73.56103 | 8952 ft | 284 kts | 62° |
| 2026-05-08 23:18 | 40.96633 | -73.53757 | 8950 ft | 284 kts | 62° |
| 2026-05-08 23:19 | 40.97452 | -73.51371 | 8953 ft | 284 kts | 62° |
| 2026-05-08 23:19 | 40.98257 | -73.49017 | 9131 ft | 279 kts | 62° |
| 2026-05-08 23:19 | 40.99046 | -73.46659 | 9212 ft | 281 kts | 65° |
| 2026-05-08 23:19 | 40.99666 | -73.44190 | 9279 ft | 283 kts | 69° |
| 2026-05-08 23:20 | 41.00436 | -73.41808 | 9329 ft | 280 kts | 55° |
| 2026-05-08 23:20 | 41.01543 | -73.39715 | 9418 ft | 276 kts | 46° |
| 2026-05-08 23:20 | 41.02734 | -73.37719 | 9507 ft | 277 kts | 46° |
| 2026-05-08 23:20 | 41.03879 | -73.35660 | 9588 ft | 279 kts | 50° |
| 2026-05-08 23:21 | 41.04969 | -73.33530 | 9660 ft | 280 kts | 51° |
| 2026-05-08 23:21 | 41.06057 | -73.31431 | 9734 ft | 280 kts | 49° |
| 2026-05-08 23:21 | 41.07178 | -73.29321 | 9809 ft | 280 kts | 49° |
| 2026-05-08 23:21 | 41.08301 | -73.27202 | 9868 ft | 281 kts | 49° |
| 2026-05-08 23:22 | 41.09420 | -73.25072 | 9906 ft | 283 kts | 49° |
| 2026-05-08 23:22 | 41.10549 | -73.22920 | 9905 ft | 285 kts | 49° |
| 2026-05-08 23:22 | 41.11682 | -73.20763 | 9906 ft | 286 kts | 49° |
| 2026-05-08 23:22 | 41.12820 | -73.18599 | 9906 ft | 286 kts | 49° |
| 2026-05-08 23:23 | 41.13958 | -73.16432 | 9907 ft | 287 kts | 50° |
| 2026-05-08 23:23 | 41.15097 | -73.14261 | 9909 ft | 287 kts | 49° |
| 2026-05-08 23:23 | 41.16204 | -73.12046 | 9917 ft | 291 kts | 57° |
| 2026-05-08 23:23 | 41.17053 | -73.09596 | 9917 ft | 292 kts | 61° |
| 2026-05-08 23:24 | 41.17918 | -73.07163 | 9915 ft | 292 kts | 60° |
| 2026-05-08 23:24 | 41.18790 | -73.04772 | 9918 ft | 292 kts | 60° |
| 2026-05-08 23:24 | 41.19659 | -73.02333 | 9915 ft | 292 kts | 60° |
| 2026-05-08 23:24 | 41.20521 | -72.99890 | 9914 ft | 292 kts | 60° |
| 2026-05-08 23:25 | 41.21388 | -72.97450 | 9906 ft | 292 kts | 60° |
| 2026-05-08 23:25 | 41.22255 | -72.95013 | 9904 ft | 292 kts | 60° |
| 2026-05-08 23:25 | 41.23120 | -72.92573 | 9902 ft | 292 kts | 60° |
| 2026-05-08 23:25 | 41.23985 | -72.90130 | 9902 ft | 292 kts | 60° |
| 2026-05-08 23:26 | 41.24850 | -72.87686 | 9898 ft | 292 kts | 60° |
| 2026-05-08 23:26 | 41.25704 | -72.85276 | 9903 ft | 292 kts | 60° |
| 2026-05-08 23:26 | 41.26566 | -72.82833 | 9903 ft | 292 kts | 60° |
| 2026-05-08 23:26 | 41.27429 | -72.80393 | 9903 ft | 292 kts | 60° |
| 2026-05-08 23:27 | 41.28291 | -72.77949 | 9904 ft | 293 kts | 60° |
| 2026-05-08 23:27 | 41.29163 | -72.75477 | 9895 ft | 297 kts | 60° |
| 2026-05-08 23:27 | 41.30036 | -72.72990 | 9905 ft | 296 kts | 60° |
| 2026-05-08 23:27 | 41.30906 | -72.70519 | 9903 ft | 294 kts | 60° |
| 2026-05-08 23:28 | 41.31775 | -72.68056 | 9906 ft | 294 kts | 60° |
| 2026-05-08 23:28 | 41.32646 | -72.65597 | 9905 ft | 294 kts | 60° |
| 2026-05-08 23:28 | 41.33517 | -72.63141 | 9910 ft | 294 kts | 60° |
| 2026-05-08 23:28 | 41.34386 | -72.60684 | 9915 ft | 293 kts | 60° |
| 2026-05-08 23:29 | 41.35240 | -72.58260 | 9911 ft | 293 kts | 60° |
| 2026-05-08 23:29 | 41.36101 | -72.55792 | 9942 ft | 294 kts | 63° |
| 2026-05-08 23:29 | 41.36624 | -72.53153 | 10004 ft | 298 kts | 81° |
| 2026-05-08 23:29 | 41.36634 | -72.50383 | 10016 ft | 301 kts | 96° |
| 2026-05-08 23:30 | 41.36404 | -72.47613 | 10009 ft | 301 kts | 96° |
| 2026-05-08 23:30 | 41.36195 | -72.44837 | 10006 ft | 302 kts | 96° |
| 2026-05-08 23:30 | 41.35981 | -72.42057 | 10010 ft | 302 kts | 96° |
| 2026-05-08 23:30 | 41.35759 | -72.39275 | 10008 ft | 302 kts | 96° |
| 2026-05-08 23:31 | 41.35547 | -72.36493 | 10006 ft | 302 kts | 95° |
| 2026-05-08 23:31 | 41.35449 | -72.33732 | 10004 ft | 303 kts | 91° |
| 2026-05-08 23:31 | 41.35397 | -72.30932 | 10001 ft | 303 kts | 91° |
| 2026-05-08 23:31 | 41.35302 | -72.28133 | 9999 ft | 303 kts | 93° |
| 2026-05-08 23:32 | 41.35187 | -72.25329 | 9985 ft | 303 kts | 92° |
| 2026-05-08 23:32 | 41.35085 | -72.22525 | 9983 ft | 304 kts | 92° |
| 2026-05-08 23:32 | 41.34988 | -72.19719 | 9980 ft | 304 kts | 92° |
| 2026-05-08 23:32 | 41.34887 | -72.16916 | 9981 ft | 303 kts | 92° |
| 2026-05-08 23:33 | 41.34785 | -72.14116 | 9981 ft | 303 kts | 92° |
| 2026-05-08 23:33 | 41.34681 | -72.11312 | 9977 ft | 303 kts | 92° |
| 2026-05-08 23:33 | 41.34579 | -72.08508 | 9977 ft | 303 kts | 92° |
| 2026-05-08 23:33 | 41.34473 | -72.05702 | 9976 ft | 304 kts | 92° |
| 2026-05-08 23:34 | 41.34367 | -72.02893 | 9972 ft | 304 kts | 92° |
| 2026-05-08 23:34 | 41.34262 | -72.00085 | 9982 ft | 304 kts | 92° |
| 2026-05-08 23:34 | 41.34156 | -71.97276 | 9979 ft | 304 kts | 92° |
| 2026-05-08 23:34 | 41.34049 | -71.94508 | 9978 ft | 304 kts | 92° |
| 2026-05-08 23:35 | 41.33942 | -71.91697 | 9985 ft | 304 kts | 92° |
| 2026-05-08 23:35 | 41.33833 | -71.88885 | 9986 ft | 305 kts | 92° |
| 2026-05-08 23:35 | 41.33722 | -71.86070 | 9984 ft | 305 kts | 92° |
| 2026-05-08 23:35 | 41.33612 | -71.83248 | 9982 ft | 305 kts | 92° |
| 2026-05-08 23:36 | 41.33483 | -71.80434 | 9986 ft | 305 kts | 93° |
| 2026-05-08 23:36 | 41.33363 | -71.77615 | 9989 ft | 305 kts | 92° |
| 2026-05-08 23:36 | 41.33256 | -71.74796 | 9981 ft | 305 kts | 92° |
| 2026-05-08 23:36 | 41.33152 | -71.71978 | 9983 ft | 305 kts | 91° |
| 2026-05-08 23:37 | 41.33223 | -71.69172 | 9984 ft | 303 kts | 83° |
| 2026-05-08 23:37 | 41.33433 | -71.66383 | 9983 ft | 303 kts | 82° |
| 2026-05-08 23:37 | 41.33577 | -71.63617 | 9987 ft | 304 kts | 85° |
| 2026-05-08 23:37 | 41.33657 | -71.60803 | 9992 ft | 304 kts | 86° |
| 2026-05-08 23:38 | 41.33653 | -71.57983 | 9993 ft | 305 kts | 93° |
| 2026-05-08 23:38 | 41.33429 | -71.55175 | 10013 ft | 305 kts | 96° |
| 2026-05-08 23:38 | 41.33234 | -71.52361 | 10005 ft | 305 kts | 93° |
| 2026-05-08 23:38 | 41.33126 | -71.49541 | 10002 ft | 305 kts | 91° |
| 2026-05-08 23:39 | 41.33011 | -71.46721 | 10003 ft | 306 kts | 93° |
| 2026-05-08 23:39 | 41.32864 | -71.43898 | 10000 ft | 306 kts | 93° |
| 2026-05-08 23:39 | 41.32718 | -71.41072 | 10004 ft | 306 kts | 93° |
| 2026-05-08 23:39 | 41.32583 | -71.38284 | 9996 ft | 306 kts | 92° |
| 2026-05-08 23:40 | 41.32445 | -71.35461 | 9998 ft | 306 kts | 92° |
| 2026-05-08 23:40 | 41.32304 | -71.32639 | 10000 ft | 306 kts | 92° |
| 2026-05-08 23:40 | 41.32162 | -71.29818 | 9998 ft | 306 kts | 93° |
| 2026-05-08 23:40 | 41.32020 | -71.26998 | 9996 ft | 306 kts | 93° |
| 2026-05-08 23:41 | 41.31878 | -71.24176 | 9995 ft | 306 kts | 93° |
| 2026-05-08 23:41 | 41.31735 | -71.21355 | 9997 ft | 306 kts | 93° |
| 2026-05-08 23:41 | 41.31590 | -71.18533 | 9996 ft | 306 kts | 92° |
| 2026-05-08 23:41 | 41.31445 | -71.15720 | 9953 ft | 298 kts | 93° |
| 2026-05-08 23:42 | 41.31299 | -71.12988 | 8892 ft | 297 kts | 93° |
| 2026-05-08 23:42 | 41.31155 | -71.10311 | 7866 ft | 289 kts | 93° |
| 2026-05-08 23:42 | 41.31021 | -71.07691 | 6810 ft | 281 kts | 93° |
| 2026-05-08 23:42 | 41.30890 | -71.05145 | 5736 ft | 270 kts | 94° |
| 2026-05-08 23:43 | 41.30764 | -71.02688 | 4646 ft | 262 kts | 94° |
| 2026-05-08 23:43 | 41.30642 | -71.00325 | 4011 ft | 245 kts | 94° |
| 2026-05-08 23:43 | 41.30544 | -70.98185 | 3996 ft | 222 kts | 94° |
| 2026-05-08 23:43 | 41.30441 | -70.96186 | 3995 ft | 212 kts | 94° |
| 2026-05-08 23:44 | 41.30334 | -70.94254 | 3994 ft | 207 kts | 94° |
| 2026-05-08 23:44 | 41.30229 | -70.92350 | 3990 ft | 206 kts | 94° |
| 2026-05-08 23:44 | 41.30127 | -70.90454 | 3992 ft | 205 kts | 94° |
| 2026-05-08 23:44 | 41.30027 | -70.88586 | 3995 ft | 205 kts | 94° |
| 2026-05-08 23:45 | 41.29925 | -70.86701 | 3991 ft | 204 kts | 94° |
| 2026-05-08 23:45 | 41.29823 | -70.84820 | 3990 ft | 204 kts | 94° |
| 2026-05-08 23:45 | 41.29722 | -70.82941 | 3988 ft | 204 kts | 94° |
| 2026-05-08 23:45 | 41.29620 | -70.81060 | 3988 ft | 204 kts | 94° |
| 2026-05-08 23:46 | 41.29519 | -70.79177 | 3992 ft | 204 kts | 91° |
| 2026-05-08 23:46 | 41.29664 | -70.77316 | 3988 ft | 202 kts | 76° |
| 2026-05-08 23:46 | 41.29952 | -70.75486 | 3991 ft | 202 kts | 77° |
| 2026-05-08 23:46 | 41.30178 | -70.73639 | 3992 ft | 203 kts | 80° |
| 2026-05-08 23:47 | 41.30374 | -70.71805 | 3989 ft | 203 kts | 80° |
| 2026-05-08 23:47 | 41.30575 | -70.69950 | 3988 ft | 203 kts | 80° |
| 2026-05-08 23:47 | 41.30779 | -70.68094 | 3990 ft | 203 kts | 80° |
| 2026-05-08 23:47 | 41.30983 | -70.66234 | 3985 ft | 203 kts | 80° |
| 2026-05-08 23:48 | 41.31186 | -70.64377 | 3984 ft | 202 kts | 80° |
| 2026-05-08 23:48 | 41.31389 | -70.62525 | 3987 ft | 202 kts | 80° |
| 2026-05-08 23:48 | 41.31591 | -70.60673 | 3986 ft | 202 kts | 80° |
| 2026-05-08 23:48 | 41.31793 | -70.58824 | 3986 ft | 202 kts | 80° |
| 2026-05-08 23:49 | 41.31995 | -70.56977 | 3987 ft | 202 kts | 80° |
| 2026-05-08 23:49 | 41.32192 | -70.55155 | 3990 ft | 202 kts | 80° |
| 2026-05-08 23:49 | 41.32392 | -70.53313 | 3988 ft | 201 kts | 80° |
| 2026-05-08 23:49 | 41.32593 | -70.51468 | 3988 ft | 202 kts | 80° |
| 2026-05-08 23:50 | 41.32793 | -70.49616 | 3990 ft | 202 kts | 81° |
| 2026-05-08 23:50 | 41.32995 | -70.47752 | 3989 ft | 210 kts | 80° |
| 2026-05-08 23:50 | 41.33215 | -70.45721 | 4005 ft | 232 kts | 81° |
| 2026-05-08 23:50 | 41.33443 | -70.43526 | 4008 ft | 246 kts | 81° |
| 2026-05-08 23:51 | 41.33682 | -70.41239 | 4007 ft | 252 kts | 81° |
| 2026-05-08 23:51 | 41.33931 | -70.38917 | 4005 ft | 255 kts | 81° |
| 2026-05-08 23:51 | 41.34185 | -70.36576 | 4007 ft | 256 kts | 81° |
| 2026-05-08 23:51 | 41.34433 | -70.34261 | 4007 ft | 257 kts | 81° |
| 2026-05-08 23:52 | 41.34684 | -70.31908 | 4011 ft | 257 kts | 81° |
| 2026-05-08 23:52 | 41.34933 | -70.29558 | 4009 ft | 257 kts | 81° |
| 2026-05-08 23:52 | 41.35184 | -70.27204 | 4011 ft | 257 kts | 81° |
| 2026-05-08 23:52 | 41.35434 | -70.24849 | 4003 ft | 254 kts | 81° |
| 2026-05-08 23:53 | 41.35676 | -70.22575 | 3901 ft | 247 kts | 81° |
| 2026-05-08 23:53 | 41.35912 | -70.20343 | 3501 ft | 239 kts | 81° |
| 2026-05-08 23:53 | 41.36141 | -70.18150 | 2700 ft | 238 kts | 82° |
| 2026-05-08 23:53 | 41.36367 | -70.16006 | 2021 ft | 225 kts | 81° |
| 2026-05-08 23:54 | 41.36575 | -70.14105 | 1993 ft | 193 kts | 81° |
| 2026-05-08 23:54 | 41.36769 | -70.12336 | 1994 ft | 192 kts | 82° |
| 2026-05-08 23:54 | 41.36947 | -70.10607 | 1994 ft | 191 kts | 81° |
| 2026-05-08 23:55 | 41.37291 | -70.07295 | 1989 ft | 169 kts | 81° |
| 2026-05-08 23:55 | 41.37453 | -70.05763 | 1992 ft | 166 kts | 81° |
| 2026-05-08 23:55 | 41.37611 | -70.04247 | 1994 ft | 165 kts | 81° |
| 2026-05-08 23:55 | 41.37768 | -70.02745 | 1994 ft | 163 kts | 82° |
| 2026-05-08 23:56 | 41.37923 | -70.01259 | 1996 ft | 161 kts | 82° |
| 2026-05-08 23:56 | 41.38024 | -70.00283 | 1991 ft | 160 kts | 82° |
| 2026-05-08 23:56 | 41.37881 | -69.98411 | 2006 ft | 151 kts | 131° |
| 2026-05-08 23:56 | 41.37147 | -69.97754 | 2007 ft | 115 kts | 167° |
| 2026-05-08 23:57 | 41.36405 | -69.97270 | 2007 ft | 122 kts | 164° |
| 2026-05-08 23:57 | 41.35624 | -69.96774 | 2013 ft | 126 kts | 165° |
| 2026-05-08 23:57 | 41.34820 | -69.96276 | 2012 ft | 128 kts | 165° |
| 2026-05-08 23:57 | 41.34008 | -69.95786 | 2015 ft | 125 kts | 165° |
| 2026-05-08 23:58 | 41.33231 | -69.95307 | 2005 ft | 121 kts | 166° |
| 2026-05-08 23:58 | 41.32722 | -69.95170 | 2006 ft | 105 kts | 202° |
| 2026-05-08 23:58 | 41.32028 | -69.95889 | 1990 ft | 91 kts | 244° |
| 2026-05-08 23:58 | 41.31829 | -69.96350 | 1910 ft | 86 kts | 247° |
| 2026-05-08 23:59 | 41.31577 | -69.97354 | 1536 ft | 87 kts | 259° |
| 2026-05-08 23:59 | 41.31349 | -69.98067 | 1234 ft | 80 kts | 247° |
| 2026-05-08 23:59 | 41.31001 | -69.98629 | 917 ft | 70 kts | 236° |
| 2026-05-08 23:59 | 41.30682 | -69.99129 | 919 ft | 73 kts | 235° |
| 2026-05-09 00:00 | 41.30457 | -69.99467 | 921 ft | 75 kts | 233° |
| 2026-05-09 00:00 | 41.30103 | -69.99986 | 923 ft | 76 kts | 234° |
| 2026-05-09 00:00 | 41.29735 | -70.00501 | 916 ft | 77 kts | 232° |
| 2026-05-09 00:00 | 41.29365 | -70.01016 | 923 ft | 77 kts | 232° |
| 2026-05-09 00:01 | 41.28981 | -70.01538 | 919 ft | 81 kts | 232° |
| 2026-05-09 00:01 | 41.28447 | -70.02268 | 782 ft | 82 kts | 229° |
| 2026-05-09 00:01 | 41.28176 | -70.02626 | 708 ft | 81 kts | 230° |
| 2026-05-09 00:01 | 41.27775 | -70.03159 | 601 ft | 82 kts | 231° |
| 2026-05-09 00:02 | 41.27373 | -70.03696 | 495 ft | 83 kts | 231° |
| 2026-05-09 00:02 | 41.26971 | -70.04256 | 415 ft | 82 kts | 231° |
| 2026-05-09 00:02 | 41.26557 | -70.04777 | 349 ft | 84 kts | 231° |
| 2026-05-09 00:02 | 41.26152 | -70.05321 | 183 ft | 78 kts | 230° |
| 2026-05-09 00:03 | 41.25785 | -70.05804 | 67 ft | 68 kts | 230° |
| 2026-05-09 00:03 | 41.25508 | -70.06167 | 46 ft | 45 kts | 233° |
| 2026-05-09 00:03 | 41.25414 | -70.06304 | 44 ft | 8 kts | 231° |
| 2026-05-09 00:03 | 41.25386 | -70.06345 | 43 ft | 4 kts | 227° |
| 2026-05-09 00:04 | 41.25376 | -70.06360 | 43 ft | 0 kts | 227° |
| 2026-05-09 00:04 | 41.25381 | -70.06415 | 43 ft | 12 kts | 305° |
| 2026-05-09 00:04 | 41.25335 | -70.06355 | 43 ft | 4 kts | 118° |
| 2026-05-09 00:04 | 41.25360 | -70.06377 | 43 ft | 2 kts | 288° |
| 2026-05-09 00:05 | 41.25357 | -70.06385 | 43 ft | 0 kts | 219° |
| 2026-05-09 00:05 | 41.25356 | -70.06386 | 43 ft | 2 kts | 238° |
| 2026-05-09 00:05 | 41.25396 | -70.06437 | 43 ft | 0 kts | 316° |
| 2026-05-09 00:05 | 41.25398 | -70.06439 | 43 ft | 4 kts | 321° |
| 2026-05-09 00:06 | 41.25466 | -70.06527 | 43 ft | 16 kts | 321° |
| 2026-05-09 00:06 | 41.25510 | -70.06511 | 44 ft | 10 kts | 34° |
| 2026-05-09 00:06 | 41.25554 | -70.06525 | 44 ft | 8 kts | 88° |
| 2026-05-09 00:06 | 41.25542 | -70.06506 | 44 ft | 0 kts | 134° |